Terminal Aerodrome Forecast
Issued by NWS

Home | Current Version | Previous Version | Text Only | Print | Product List | Glossary On
Versions: 1 2 3 4 5 6 7 8 9 10 11 12 13 14 15
000
FTUS46 KSEW 281720
TAFCLM
TAF
KCLM 281720Z 2818/2918 VRB03KT P6SM BKN025 BKN060 OVC100
     FM282000 VRB04KT P6SM VCSH SCT030 BKN050 OVC080
     FM282200 VRB04KT P6SM VCSH FEW035 BKN050 OVC080
     FM290100 VRB03KT P6SM FEW035 SCT050 SCT080
     FM290400 VRB04KT P6SM SCT040=

USA.gov is the U.S. government's official web portal to all federal, state and local government web resources and services.